KRFD/RFD METAR and TAF weather

Enter ICAO airport designator
Station Type Date Time Source
KRFD METAR 2022/07/03 13:54 UTC NOAA

KRFD 031354Z 00000KT 10SM CLR 24/16 A3016 RMK AO2 SLP209 T02390161


Station Type Date Time Source
KRFD Decoded METAR 2022/07/03 13:54 UTC NOAA

GREATER ROCKFORD AIRPORT, IL, United States (KRFD) 42-12N 89-06W 221M
Jul 03, 2022 - 09:54 AM EDT / 2022.07.03 1354 UTC
Wind: Calm:0
Visibility: 10 mile(s):0
Sky conditions: clear
Temperature: 75.0 F (23.9 C)
Dew Point: 61.0 F (16.1 C)
Relative Humidity: 61%
Pressure (altimeter): 30.16 in. Hg (1021 hPa)
ob: KRFD 031354Z 00000KT 10SM CLR 24/16 A3016 RMK AO2 SLP209 T02390161
cycle: 14

Station Type Date Time Source
KRFD TAF 2022/07/03 12:24 UTC NOAA

TAF KRFD 031120Z 0312/0412 17005KT P6SM FEW300

Example: see airport list